Flight Track Log - Related Links

Times and Time Zones

All times are in EDT time to prevent confusion due to time zone crossing. See the CMP205 flight status page for this flight to view local times or setup timezone preferences in your user account.

Time Position Orientation Groundspeed Altitude Reporting Facility
EDT Latitude Longitude Course Direction KTS MPH feet Rate Location/Type
Wed 05:36:00 PM 7.6150 -78.5670 101° East 466 536 31,900  Level FlightAware ADS-B
Wed 05:36:35 PM 7.5990 -78.4900 102° East 469 540 32,400 423 Climbing FlightAware ADS-B
Wed 05:37:11 PM 7.5870 -78.4310 102° East 469 540 32,400  Level FlightAware ADS-B
Wed 05:37:47 PM 7.5730 -78.3660 102° East 469 540 32,400 1,391 Level FlightAware ADS-B
Wed 05:38:20 PM 7.5540 -78.2650 101° East 453 521 34,000 1,705 Climbing FlightAware ADS-B
Wed 05:39:15 PM 7.5240 -78.1530 105° East 486 559 34,900 923 Climbing FlightAware ADS-B
Wed 05:39:25 PM 7.5150 -78.1370 120° Southeast 458 527 35,000 130 Climbing FlightAware ADS-B
Wed 05:40:01 PM 7.4700 -78.0710 125° Southeast 456 525 35,000  Level FlightAware ADS-B
Wed 05:40:35 PM 7.4270 -78.0120 126° Southeast 454 522 35,000  Level FlightAware ADS-B
Wed 05:41:10 PM 7.3850 -77.9520 125° Southeast 451 519 35,000  Level FlightAware ADS-B
Wed 05:41:50 PM 7.3360 -77.8820 125° Southeast 450 518 35,000  Level FlightAware ADS-B
Wed 05:42:20 PM 7.3000 -77.8310 125° Southeast 450 518 35,000  Level FlightAware ADS-B
Wed 05:42:55 PM 7.2610 -77.7760 126° Southeast 450 518 35,000  Level FlightAware ADS-B
Wed 05:43:35 PM 7.2100 -77.7050 126° Southeast 450 518 35,000  Level FlightAware ADS-B
Wed 05:44:10 PM 7.1670 -77.6440 125° Southeast 449 517 35,000  Level FlightAware ADS-B
Wed 05:44:40 PM 7.1310 -77.5940 126° Southeast 448 516 35,000  Level FlightAware ADS-B
Wed 05:45:20 PM 7.0830 -77.5260 125° Southeast 449 517 35,000  Level FlightAware ADS-B
Wed 05:45:50 PM 7.0460 -77.4750 126° Southeast 450 518 35,000  Level FlightAware ADS-B
Wed 05:46:30 PM 6.9970 -77.4060 126° Southeast 449 517 35,000  Level FlightAware ADS-B
Wed 05:47:00 PM 6.9640 -77.3610 126° Southeast 451 519 35,000  Level FlightAware ADS-B
Wed 05:47:56 PM 6.8990 -77.2700 126° Southeast 452 520 35,000  Level FlightAware ADS-B
Wed 05:48:35 PM 6.8460 -77.1960 126° Southeast 452 520 35,000  Level FlightAware ADS-B
Wed 05:49:10 PM 6.8060 -77.1400 126° Southeast 452 520 35,000  Level FlightAware ADS-B
Wed 05:49:40 PM 6.7680 -77.0870 126° Southeast 452 520 35,000  Level FlightAware ADS-B
Wed 05:50:20 PM 6.7160 -77.0150 126° Southeast 453 521 35,000  Level FlightAware ADS-B
Wed 05:50:55 PM 6.6740 -76.9570 126° Southeast 452 520 35,000  Level FlightAware ADS-B
Wed 05:51:30 PM 6.6330 -76.8990 125° Southeast 453 521 35,000  Level FlightAware ADS-B
Wed 05:52:05 PM 6.5880 -76.8360 126° Southeast 453 521 35,000  Level FlightAware ADS-B
Wed 05:52:40 PM 6.5480 -76.7810 126° Southeast 454 522 35,000  Level FlightAware ADS-B
Wed 05:53:22 PM 6.4990 -76.7140 126° Southeast 454 522 35,000  Level FlightAware ADS-B
Wed 05:53:58 PM 6.4620 -76.6610 125° Southeast 454 522 35,000  Level FlightAware ADS-B
Wed 05:54:34 PM 6.4240 -76.6090 126° Southeast 454 522 35,000  Level FlightAware ADS-B
Wed 05:55:05 PM 6.3690 -76.5320 126° Southeast 453 521 35,000  Level FlightAware ADS-B
Wed 05:55:39 PM 6.3260 -76.4720 126° Southeast 454 522 35,000  Level FlightAware ADS-B
Wed 05:56:14 PM 6.2820 -76.4110 126° Southeast 455 524 35,000  Level FlightAware ADS-B
Wed 05:56:54 PM 6.2340 -76.3440 126° Southeast 455 524 35,000  Level FlightAware ADS-B
Wed 05:57:29 PM 6.1890 -76.2820 126° Southeast 456 525 35,000  Level FlightAware ADS-B
Wed 05:57:59 PM 6.1530 -76.2320 126° Southeast 457 526 35,000  Level FlightAware ADS-B
Wed 05:58:34 PM 6.1100 -76.1720 126° Southeast 458 527 35,000  Level FlightAware ADS-B
Wed 05:59:14 PM 6.0580 -76.1010 126° Southeast 461 531 35,000  Level FlightAware ADS-B
Wed 05:59:49 PM 6.0150 -76.0410 126° Southeast 463 533 35,000  Level FlightAware ADS-B
Wed 06:00:19 PM 5.9780 -75.9890 126° Southeast 465 535 35,000  Level FlightAware ADS-B
Wed 06:00:54 PM 5.9340 -75.9280 126° Southeast 467 537 35,000  Level FlightAware ADS-B
Wed 06:01:34 PM 5.8870 -75.8630 126° Southeast 468 539 35,000  Level FlightAware ADS-B
Wed 06:02:09 PM 5.8380 -75.7950 126° Southeast 466 536 35,000  Level FlightAware ADS-B
Wed 06:02:34 PM 5.8060 -75.7520 127° Southeast 462 532 35,000  Level FlightAware ADS-B
Wed 06:03:10 PM 5.7630 -75.6920 126° Southeast 457 526 35,000  Level FlightAware ADS-B
Wed 06:03:44 PM 5.7200 -75.6320 126° Southeast 457 526 35,000  Level FlightAware ADS-B
Wed 06:04:24 PM 5.6710 -75.5640 126° Southeast 454 522 35,000  Level FlightAware ADS-B
Wed 06:04:57 PM 5.6370 -75.5160 125° Southeast 453 521 35,000  Level FlightAware ADS-B
Wed 06:05:31 PM 5.5890 -75.4520 127° Southeast 444 511 35,000  Level FlightAware ADS-B
Wed 06:06:05 PM 5.5470 -75.3930 126° Southeast 446 513 35,000  Level FlightAware ADS-B
Wed 06:06:41 PM 5.5030 -75.3330 126° Southeast 447 514 35,000  Level FlightAware ADS-B
Wed 06:07:17 PM 5.4590 -75.2720 126° Southeast 450 518 35,000  Level FlightAware ADS-B
Wed 06:07:49 PM 5.4200 -75.2180 126° Southeast 451 519 35,000  Level FlightAware ADS-B
Wed 06:08:25 PM 5.3760 -75.1580 126° Southeast 453 521 35,000  Level FlightAware ADS-B
Wed 06:09:01 PM 5.3310 -75.0950 126° Southeast 451 519 35,000  Level FlightAware ADS-B
Wed 06:09:37 PM 5.2870 -75.0340 126° Southeast 449 517 35,000  Level FlightAware ADS-B
Wed 06:10:14 PM 5.2430 -74.9740 126° Southeast 451 519 35,000  Level FlightAware ADS-B
Wed 06:10:45 PM 5.2040 -74.9190 125° Southeast 451 519 35,000  Level FlightAware ADS-B
Wed 06:11:01 PM 5.1860 -74.8890 121° Southeast 452 520 35,000  Level FlightAware ADS-B
Wed 06:11:53 PM 5.1310 -74.7970 121° Southeast 450 518 35,000  Level FlightAware ADS-B
Wed 06:12:29 PM 5.0930 -74.7340 121° Southeast 450 518 35,000  Level FlightAware ADS-B
Wed 06:13:06 PM 5.0530 -74.6660 121° Southeast 451 519 35,000  Level FlightAware ADS-B
Wed 06:13:38 PM 5.0190 -74.6100 121° Southeast 450 518 35,000  Level FlightAware ADS-B
Wed 06:14:14 PM 4.9790 -74.5450 122° Southeast 451 519 35,000  Level FlightAware ADS-B
Wed 06:14:50 PM 4.9410 -74.4800 120° Southeast 451 519 35,000  Level FlightAware ADS-B
Wed 06:15:24 PM 4.9040 -74.4190 121° Southeast 451 519 35,000  Level FlightAware ADS-B
Wed 06:15:57 PM 4.8700 -74.3620 121° Southeast 451 519 35,000  Level FlightAware ADS-B
Wed 06:16:34 PM 4.8250 -74.2970 125° Southeast 451 519 35,000  Level FlightAware ADS-B
Wed 06:17:06 PM 4.7820 -74.2450 130° Southeast 450 518 35,000  Level FlightAware ADS-B
Wed 06:17:44 PM 4.7320 -74.1850 130° Southeast 449 517 35,000  Level FlightAware ADS-B
Wed 06:18:20 PM 4.6850 -74.1280 130° Southeast 451 519 35,000  Level FlightAware ADS-B
Wed 06:18:52 PM 4.6400 -74.0740 130° Southeast 450 518 35,000  Level FlightAware ADS-B
Wed 06:19:29 PM 4.5930 -74.0160 129° Southeast 449 517 35,000  Level FlightAware ADS-B
Wed 06:20:06 PM 4.5430 -73.9570 130° Southeast 448 516 35,000  Level FlightAware ADS-B
Wed 06:20:38 PM 4.4990 -73.9040 130° Southeast 448 516 35,000  Level FlightAware ADS-B
Wed 06:21:14 PM 4.4520 -73.8470 130° Southeast 446 513 35,000  Level FlightAware ADS-B
Wed 06:21:50 PM 4.4050 -73.7900 130° Southeast 441 507 35,000  Level FlightAware ADS-B
Wed 06:22:26 PM 4.3590 -73.7340 129° Southeast 437 503 35,000  Level FlightAware ADS-B
Wed 06:22:58 PM 4.3170 -73.6840 130° Southeast 435 501 35,000  Level FlightAware ADS-B
Wed 06:23:35 PM 4.2700 -73.6270 130° Southeast 432 497 35,000  Level FlightAware ADS-B
Wed 06:24:09 PM 4.2260 -73.5740 130° Southeast 431 496 35,000  Level FlightAware ADS-B
Wed 06:24:45 PM 4.1810 -73.5200 130° Southeast 429 494 35,000  Level FlightAware ADS-B
Wed 06:25:21 PM 4.1340 -73.4630 130° Southeast 430 495 35,000  Level FlightAware ADS-B
Wed 06:25:57 PM 4.0890 -73.4090 130° Southeast 430 495 35,000  Level FlightAware ADS-B
Wed 06:26:44 PM 4.0260 -73.3370 131° Southeast 431 496 35,000  Level FlightAware ADS-B
Wed 06:27:20 PM 3.9800 -73.2840 131° Southeast 432 497 35,000  Level FlightAware ADS-B
Wed 06:27:52 PM 3.9370 -73.2360 132° Southeast 431 496 35,000  Level FlightAware ADS-B
Wed 06:28:28 PM 3.8940 -73.1800 128° Southeast 429 494 35,000  Level FlightAware ADS-B
Wed 06:29:11 PM 3.8650 -73.1130 113° Southeast 431 496 35,000  Level FlightAware ADS-B
Wed 06:29:47 PM 3.8420 -73.0570 112° Southeast 431 496 35,000  Level FlightAware ADS-B
Wed 06:30:23 PM 3.8180 -73.0000 113° Southeast 431 496 35,000  Level FlightAware ADS-B
Wed 06:30:59 PM 3.7940 -72.9440 113° Southeast 431 496 35,000  Level FlightAware ADS-B
Wed 06:31:35 PM 3.7700 -72.8880 113° Southeast 431 496 35,000  Level FlightAware ADS-B
Wed 06:32:11 PM 3.7460 -72.8310 113° Southeast 431 496 35,000  Level FlightAware ADS-B
Wed 06:32:47 PM 3.7220 -72.7750 113° Southeast 431 496 35,000  Level FlightAware ADS-B
Wed 06:33:23 PM 3.6980 -72.7190 113° Southeast 431 496 35,000  Level FlightAware ADS-B
Wed 06:33:59 PM 3.6750 -72.6630 112° Southeast 431 496 35,000  Level FlightAware ADS-B
Wed 06:34:35 PM 3.6510 -72.6060 113° Southeast 431 496 35,000  Level FlightAware ADS-B
Wed 06:35:12 PM 3.6260 -72.5480 113° Southeast 431 496 35,000  Level FlightAware ADS-B
Wed 06:35:48 PM 3.6020 -72.4920 113° Southeast 431 496 35,000  Level FlightAware ADS-B
Wed 06:36:24 PM 3.5790 -72.4360 112° Southeast 431 496 35,000  Level FlightAware ADS-B
Wed 06:37:01 PM 3.5540 -72.3780 113° Southeast 431 496 35,000  Level FlightAware ADS-B
Wed 06:37:39 PM 3.5290 -72.3190 113° Southeast 431 496 35,000  Level FlightAware ADS-B
Wed 06:38:15 PM 3.5050 -72.2620 113° Southeast 431 496 35,000 -9 Level FlightAware ADS-B
Wed 06:40:00 PM 3.3654 -72.0921 129° Southeast  Level Estimated
Wed 06:41:00 PM 3.2857 -71.9951 129° Southeast  Level Estimated
Wed 06:42:00 PM 3.2059 -71.8981 129° Southeast  Level Estimated
Wed 06:43:00 PM 3.1261 -71.8011 129° Southeast  Level Estimated
Wed 06:44:00 PM 3.0463 -71.7041 129° Southeast  Level Estimated
Wed 06:45:00 PM 2.9665 -71.6071 129° Southeast  Level Estimated
Wed 06:46:00 PM 2.8867 -71.5102 129° Southeast  Level Estimated
Wed 06:47:00 PM 2.8069 -71.4132 129° Southeast  Level Estimated
Wed 06:48:00 PM 2.7271 -71.3163 130° Southeast  Level Estimated
Wed 06:49:00 PM 2.6473 -71.2194 130° Southeast  Level Estimated
Wed 06:50:00 PM 2.5674 -71.1225 130° Southeast  Level Estimated
Wed 06:51:00 PM 2.4876 -71.0256 130° Southeast  Level Estimated
Wed 06:52:00 PM 2.4077 -70.9287 130° Southeast  Level Estimated
Wed 06:53:00 PM 2.3279 -70.8318 130° Southeast  Level Estimated
Wed 06:54:00 PM 2.2480 -70.7350 130° Southeast  Level Estimated
Wed 06:55:00 PM 2.1681 -70.6381 130° Southeast  Level Estimated
Wed 06:56:00 PM 2.0883 -70.5413 130° Southeast  Level Estimated
Wed 06:57:00 PM 2.0084 -70.4444 130° Southeast  Level Estimated
Wed 06:58:00 PM 1.9285 -70.3476 130° Southeast  Level Estimated
Wed 06:59:00 PM 1.8486 -70.2508 130° Southeast  Level Estimated
Wed 07:00:00 PM 1.7687 -70.1540 130° Southeast  Level Estimated
Wed 07:01:00 PM 1.6888 -70.0572 130° Southeast  Level Estimated
Wed 07:02:00 PM 1.6089 -69.9604 130° Southeast  Level Estimated
Wed 07:03:00 PM 1.5290 -69.8636 130° Southeast  Level Estimated
Wed 07:04:00 PM 1.4491 -69.7669 130° Southeast  Level Estimated
Wed 07:05:00 PM 1.3692 -69.6701 130° Southeast  Level Estimated
Wed 07:06:00 PM 1.2892 -69.5733 130° Southeast  Level Estimated
Wed 07:07:00 PM 1.2093 -69.4766 130° Southeast  Level Estimated
Wed 07:08:00 PM 1.1294 -69.3798 130° Southeast  Level Estimated
Wed 07:09:00 PM 1.0494 -69.2831 130° Southeast  Level Estimated
Wed 07:10:00 PM 0.9695 -69.1864 130° Southeast  Level Estimated
Wed 07:11:00 PM 0.8895 -69.0896 130° Southeast  Level Estimated
Wed 07:12:00 PM 0.8096 -68.9929 130° Southeast  Level Estimated
Wed 07:13:00 PM 0.7296 -68.8962 130° Southeast  Level Estimated
Wed 07:14:00 PM 0.6497 -68.7995 130° Southeast  Level Estimated
Wed 07:15:00 PM 0.5697 -68.7027 130° Southeast  Level Estimated
Wed 07:16:00 PM 0.4898 -68.6060 130° Southeast  Level Estimated
Wed 07:17:00 PM 0.4098 -68.5093 130° Southeast  Level Estimated
Wed 07:18:00 PM 0.3299 -68.4126 130° Southeast  Level Estimated
Wed 07:19:00 PM 0.2499 -68.3159 130° Southeast  Level Estimated
Wed 07:20:00 PM 0.1700 -68.2192 130° Southeast  Level Estimated
Wed 07:21:00 PM 0.0900 -68.1225 130° Southeast  Level Estimated
Wed 07:22:00 PM 0.0100 -68.0257 130° Southeast  Level Estimated
Wed 07:23:00 PM -0.0699 -67.9290 130° Southeast  Level Estimated
Wed 07:24:00 PM -0.1499 -67.8323 130° Southeast  Level Estimated
Wed 07:25:00 PM -0.2298 -67.7356 130° Southeast  Level Estimated
Wed 07:26:00 PM -0.3098 -67.6389 130° Southeast  Level Estimated
Wed 07:27:00 PM -0.3898 -67.5422 130° Southeast  Level Estimated
Wed 07:28:00 PM -0.4697 -67.4455 130° Southeast  Level Estimated
Wed 07:29:00 PM -0.5497 -67.3488 130° Southeast  Level Estimated
Wed 07:30:00 PM -0.6296 -67.2521 130° Southeast  Level Estimated
Wed 07:31:00 PM -0.7096 -67.1553 130° Southeast  Level Estimated
Wed 07:32:00 PM -0.7895 -67.0586 130° Southeast  Level Estimated
Wed 07:33:00 PM -0.8695 -66.9619 130° Southeast  Level Estimated
Wed 07:34:00 PM -0.9494 -66.8652 130° Southeast  Level Estimated
Wed 07:35:00 PM -1.0293 -66.7684 130° Southeast  Level Estimated
Wed 07:36:00 PM -1.1093 -66.6717 130° Southeast  Level Estimated
Wed 07:37:00 PM -1.1892 -66.5749 130° Southeast  Level Estimated
Wed 07:38:00 PM -1.2691 -66.4782 130° Southeast  Level Estimated
Wed 07:39:00 PM -1.3491 -66.3814 130° Southeast  Level Estimated
Wed 07:40:00 PM -1.4290 -66.2847 130° Southeast  Level Estimated
Wed 07:41:00 PM -1.5089 -66.1879 130° Southeast  Level Estimated
Wed 07:42:00 PM -1.5888 -66.0911 130° Southeast  Level Estimated
Wed 07:43:00 PM -1.6687 -65.9943 130° Southeast  Level Estimated
Wed 07:44:00 PM -1.7486 -65.8975 130° Southeast  Level Estimated
Wed 07:45:00 PM -1.8285 -65.8007 130° Southeast  Level Estimated
Wed 07:46:00 PM -1.9085 -65.7039 130° Southeast  Level Estimated
Wed 07:47:00 PM -1.9883 -65.6071 130° Southeast  Level Estimated
Wed 07:48:00 PM -2.0682 -65.5103 130° Southeast  Level Estimated
Wed 07:49:00 PM -2.1481 -65.4134 130° Southeast  Level Estimated
Wed 07:50:00 PM -2.2280 -65.3166 130° Southeast  Level Estimated
Wed 07:51:00 PM -2.3078 -65.2197 130° Southeast  Level Estimated
Wed 07:52:00 PM -2.3877 -65.1228 130° Southeast  Level Estimated
Wed 07:53:00 PM -2.4676 -65.0260 130° Southeast  Level Estimated
Wed 07:54:00 PM -2.5474 -64.9291 130° Southeast  Level Estimated
Wed 07:55:00 PM -2.6272 -64.8322 130° Southeast  Level Estimated
Wed 07:56:00 PM -2.7071 -64.7352 130° Southeast  Level Estimated
Wed 07:57:00 PM -2.7869 -64.6383 130° Southeast  Level Estimated
Wed 07:58:00 PM -2.8667 -64.5414 130° Southeast  Level Estimated
Wed 07:59:00 PM -2.9465 -64.4444 129° Southeast  Level Estimated
Wed 08:00:00 PM -3.0263 -64.3474 129° Southeast  Level Estimated
Wed 08:01:00 PM -3.1061 -64.2505 129° Southeast  Level Estimated
Wed 08:02:00 PM -3.1859 -64.1535 129° Southeast  Level Estimated
Wed 08:03:00 PM -3.2657 -64.0564 129° Southeast  Level Estimated
Wed 08:04:00 PM -3.3454 -63.9594 129° Southeast  Level Estimated
Wed 08:05:00 PM -3.4252 -63.8624 129° Southeast  Level Estimated
Wed 08:06:00 PM -3.5049 -63.7653 129° Southeast  Level Estimated
Wed 08:07:00 PM -3.5846 -63.6682 129° Southeast  Level Estimated
Wed 08:08:00 PM -3.6644 -63.5711 129° Southeast  Level Estimated
Wed 08:09:00 PM -3.7441 -63.4740 129° Southeast  Level Estimated
Wed 08:10:00 PM -3.8238 -63.3769 129° Southeast  Level Estimated
Wed 08:11:00 PM -3.9035 -63.2797 129° Southeast  Level Estimated
Wed 08:12:00 PM -3.9831 -63.1826 129° Southeast  Level Estimated
Wed 08:13:00 PM -4.0628 -63.0854 129° Southeast  Level Estimated
Wed 08:14:00 PM -4.1425 -62.9882 129° Southeast  Level Estimated
Wed 08:15:00 PM -4.2221 -62.8909 129° Southeast  Level Estimated
Wed 08:16:00 PM -4.3017 -62.7937 129° Southeast  Level Estimated
Wed 08:17:00 PM -4.3814 -62.6964 129° Southeast  Level Estimated
Wed 08:18:00 PM -4.4610 -62.5992 129° Southeast  Level Estimated
Wed 08:19:00 PM -4.5406 -62.5018 129° Southeast  Level Estimated
Wed 08:20:00 PM -4.6202 -62.4045 129° Southeast  Level Estimated
Wed 08:21:00 PM -4.6997 -62.3072 129° Southeast  Level Estimated
Wed 08:22:00 PM -4.7793 -62.2098 129° Southeast  Level Estimated
Wed 08:23:00 PM -4.8588 -62.1124 129° Southeast  Level Estimated
Wed 08:24:00 PM -4.9384 -62.0150 129° Southeast  Level Estimated
Wed 08:25:00 PM -5.0179 -61.9175 129° Southeast  Level Estimated
Wed 08:26:00 PM -5.0974 -61.8201 129° Southeast  Level Estimated
Wed 08:27:00 PM -5.1768 -61.7226 129° Southeast  Level Estimated
Wed 08:28:00 PM -5.2563 -61.6251 129° Southeast  Level Estimated
Wed 08:29:00 PM -5.3358 -61.5275 129° Southeast  Level Estimated
Wed 08:30:00 PM -5.4152 -61.4300 129° Southeast  Level Estimated
Wed 08:31:00 PM -5.4946 -61.3324 129° Southeast  Level Estimated
Wed 08:32:00 PM -5.5740 -61.2348 129° Southeast  Level Estimated
Wed 08:33:00 PM -5.6534 -61.1371 129° Southeast  Level Estimated
Wed 08:34:00 PM -5.7328 -61.0395 129° Southeast  Level Estimated
Wed 08:35:00 PM -5.8122 -60.9417 129° Southeast  Level Estimated
Wed 08:36:00 PM -5.8915 -60.8440 129° Southeast  Level Estimated
Wed 08:37:00 PM -5.9708 -60.7463 129° Southeast  Level Estimated
Wed 08:38:00 PM -6.0501 -60.6485 129° Southeast  Level Estimated
Wed 08:39:00 PM -6.1294 -60.5507 129° Southeast  Level Estimated
Wed 08:40:00 PM -6.2087 -60.4529 129° Southeast  Level Estimated
Wed 08:41:00 PM -6.2879 -60.3550 129° Southeast  Level Estimated
Wed 08:42:00 PM -6.3672 -60.2571 129° Southeast  Level Estimated
Wed 08:43:00 PM -6.4464 -60.1591 129° Southeast  Level Estimated
Wed 08:44:00 PM -6.5256 -60.0612 129° Southeast  Level Estimated
Wed 08:45:00 PM -6.6048 -59.9632 129° Southeast  Level Estimated
Wed 08:46:00 PM -6.6839 -59.8652 129° Southeast  Level Estimated
Wed 08:47:00 PM -6.7631 -59.7671 129° Southeast  Level Estimated
Wed 08:48:00 PM -6.8422 -59.6690 129° Southeast  Level Estimated
Wed 08:49:00 PM -6.9213 -59.5709 129° Southeast  Level Estimated
Wed 08:50:00 PM -7.0004 -59.4728 129° Southeast  Level Estimated
Wed 08:51:00 PM -7.0794 -59.3746 129° Southeast  Level Estimated
Wed 08:52:00 PM -7.1585 -59.2764 129° Southeast  Level Estimated
Wed 08:53:00 PM -7.2375 -59.1781 129° Southeast  Level Estimated
Wed 08:54:00 PM -7.3165 -59.0798 129° Southeast  Level Estimated
Wed 08:55:00 PM -7.3955 -58.9815 129° Southeast  Level Estimated
Wed 08:56:00 PM -7.4744 -58.8832 129° Southeast  Level Estimated
Wed 08:57:00 PM -7.5534 -58.7848 129° Southeast  Level Estimated
Wed 08:58:00 PM -7.6323 -58.6864 129° Southeast  Level Estimated
Wed 08:59:00 PM -7.7112 -58.5879 129° Southeast  Level Estimated
Wed 09:00:00 PM -7.7900 -58.4894 129° Southeast  Level Estimated
Wed 09:01:00 PM -7.8689 -58.3909 129° Southeast  Level Estimated
Wed 09:02:00 PM -7.9477 -58.2923 129° Southeast  Level Estimated
Wed 09:03:00 PM -8.0265 -58.1937 129° Southeast  Level Estimated
Wed 09:04:00 PM -8.1053 -58.0950 129° Southeast  Level Estimated
Wed 09:05:00 PM -8.1840 -57.9963 129° Southeast  Level Estimated
Wed 09:06:00 PM -8.2627 -57.8976 129° Southeast  Level Estimated
Wed 09:07:00 PM -8.3414 -57.7988 129° Southeast  Level Estimated
Wed 09:08:00 PM -8.4201 -57.7000 129° Southeast  Level Estimated
Wed 09:09:00 PM -8.4988 -57.6012 129° Southeast  Level Estimated
Wed 09:10:00 PM -8.5774 -57.5023 129° Southeast  Level Estimated
Wed 09:11:00 PM -8.6560 -57.4034 129° Southeast  Level Estimated
Wed 09:12:00 PM -8.7346 -57.3044 129° Southeast  Level Estimated
Wed 09:13:00 PM -8.8131 -57.2054 129° Southeast  Level Estimated
Wed 09:14:00 PM -8.8917 -57.1063 129° Southeast  Level Estimated
Wed 09:15:00 PM -8.9702 -57.0072 129° Southeast  Level Estimated
Wed 09:16:00 PM -9.0486 -56.9081 129° Southeast  Level Estimated
Wed 09:17:00 PM -9.1271 -56.8089 129° Southeast  Level Estimated
Wed 09:18:00 PM -9.2055 -56.7097 129° Southeast  Level Estimated
Wed 09:19:00 PM -9.2839 -56.6104 129° Southeast  Level Estimated
Wed 09:20:00 PM -9.3623 -56.5111 129° Southeast  Level Estimated
Wed 09:21:00 PM -9.4406 -56.4117 129° Southeast  Level Estimated
Wed 09:22:00 PM -9.5189 -56.3123 129° Southeast  Level Estimated
Wed 09:23:00 PM -9.5972 -56.2129 129° Southeast  Level Estimated
Wed 09:24:00 PM -9.6755 -56.1134 129° Southeast  Level Estimated
Wed 09:25:00 PM -9.7537 -56.0139 129° Southeast  Level Estimated
Wed 09:26:00 PM -9.8319 -55.9143 129° Southeast  Level Estimated
Wed 09:27:00 PM -9.9101 -55.8146 129° Southeast  Level Estimated
Wed 09:28:00 PM -9.9882 -55.7149 129° Southeast  Level Estimated
Wed 09:29:00 PM -10.0663 -55.6152 129° Southeast  Level Estimated
Wed 09:30:00 PM -10.1444 -55.5154 128° Southeast  Level Estimated
Wed 09:31:00 PM -10.2224 -55.4156 128° Southeast  Level Estimated
Wed 09:32:00 PM -10.3005 -55.3157 128° Southeast  Level Estimated
Wed 09:33:00 PM -10.3784 -55.2158 128° Southeast  Level Estimated
Wed 09:34:00 PM -10.4564 -55.1158 128° Southeast  Level Estimated
Wed 09:35:00 PM -10.5343 -55.0158 128° Southeast  Level Estimated
Wed 09:36:00 PM -10.6122 -54.9157 128° Southeast  Level Estimated
Wed 09:37:00 PM -10.6901 -54.8156 128° Southeast  Level Estimated
Wed 09:38:00 PM -10.7679 -54.7154 128° Southeast  Level Estimated
Wed 09:39:00 PM -10.8457 -54.6152 128° Southeast  Level Estimated
Wed 09:40:00 PM -10.9235 -54.5149 128° Southeast  Level Estimated
Wed 09:41:00 PM -11.0012 -54.4145 128° Southeast  Level Estimated
Wed 09:42:00 PM -11.0789 -54.3142 128° Southeast  Level Estimated
Wed 09:43:00 PM -11.1566 -54.2137 128° Southeast  Level Estimated
Wed 09:44:00 PM -11.2342 -54.1132 128° Southeast  Level Estimated
Wed 09:45:00 PM -11.3118 -54.0127 128° Southeast  Level Estimated
Wed 09:46:00 PM -11.3894 -53.9121 128° Southeast  Level Estimated
Wed 09:47:00 PM -11.4669 -53.8114 128° Southeast  Level Estimated
Wed 09:48:00 PM -11.5444 -53.7107 128° Southeast  Level Estimated
Wed 09:49:00 PM -11.6219 -53.6099 128° Southeast  Level Estimated
Wed 09:50:00 PM -11.6993 -53.5091 128° Southeast  Level Estimated
Wed 09:51:00 PM -11.7767 -53.4082 128° Southeast  Level Estimated
Wed 09:52:00 PM -11.8540 -53.3073 128° Southeast  Level Estimated
Wed 09:53:00 PM -11.9314 -53.2063 128° Southeast  Level Estimated
Wed 09:54:00 PM -12.0087 -53.1052 128° Southeast  Level Estimated
Wed 09:55:00 PM -12.0859 -53.0041 128° Southeast  Level Estimated
Wed 09:56:00 PM -12.1631 -52.9029 128° Southeast  Level Estimated
Wed 09:57:00 PM -12.2403 -52.8017 128° Southeast  Level Estimated
Wed 09:58:00 PM -12.3174 -52.7004 128° Southeast  Level Estimated
Wed 09:59:00 PM -12.3945 -52.5991 128° Southeast  Level Estimated
Wed 10:00:00 PM -12.4716 -52.4977 128° Southeast  Level Estimated
Wed 10:01:00 PM -12.5486 -52.3962 128° Southeast  Level Estimated
Wed 10:02:00 PM -12.6256 -52.2947 128° Southeast  Level Estimated
Wed 10:03:00 PM -12.7026 -52.1931 128° Southeast  Level Estimated
Wed 10:04:00 PM -12.7795 -52.0914 128° Southeast  Level Estimated
Wed 10:05:00 PM -12.8563 -51.9897 128° Southeast  Level Estimated
Wed 10:06:00 PM -12.9332 -51.8879 128° Southeast  Level Estimated
Wed 10:07:00 PM -13.0100 -51.7861 128° Southeast  Level Estimated
Wed 10:08:00 PM -13.0867 -51.6842 128° Southeast  Level Estimated
Wed 10:09:00 PM -13.1634 -51.5822 128° Southeast  Level Estimated
Wed 10:10:00 PM -13.2401 -51.4802 128° Southeast  Level Estimated
Wed 10:11:00 PM -13.3167 -51.3781 128° Southeast  Level Estimated
Wed 10:12:00 PM -13.3933 -51.2759 128° Southeast  Level Estimated
Wed 10:13:00 PM -13.4699 -51.1737 128° Southeast  Level Estimated
Wed 10:14:00 PM -13.5464 -51.0714 128° Southeast  Level Estimated
Wed 10:15:00 PM -13.6229 -50.9691 128° Southeast  Level Estimated
Wed 10:16:00 PM -13.6993 -50.8667 128° Southeast  Level Estimated
Wed 10:17:00 PM -13.7757 -50.7642 128° Southeast  Level Estimated
Wed 10:18:00 PM -13.8520 -50.6616 127° Southeast  Level Estimated
Wed 10:19:00 PM -13.9283 -50.5590 127° Southeast  Level Estimated
Wed 10:20:00 PM -14.0046 -50.4563 127° Southeast  Level Estimated
Wed 10:21:00 PM -14.0808 -50.3535 127° Southeast  Level Estimated
Wed 10:22:00 PM -14.1569 -50.2507 127° Southeast  Level Estimated
Wed 10:23:00 PM -14.2331 -50.1478 127° Southeast  Level Estimated
Wed 10:24:00 PM -14.3091 -50.0449 127° Southeast  Level Estimated
Wed 10:25:00 PM -14.3852 -49.9418 127° Southeast  Level Estimated
Wed 10:26:00 PM -14.4612 -49.8387 127° Southeast  Level Estimated
Wed 10:27:00 PM -14.5371 -49.7356 127° Southeast  Level Estimated
Wed 10:28:00 PM -14.6130 -49.6323 127° Southeast  Level Estimated
Wed 10:29:00 PM -14.6889 -49.5290 127° Southeast  Level Estimated
Wed 10:30:00 PM -14.7647 -49.4256 127° Southeast  Level Estimated
Wed 10:31:00 PM -14.8405 -49.3222 127° Southeast  Level Estimated
Wed 10:32:00 PM -14.9162 -49.2186 127° Southeast  Level Estimated
Wed 10:33:00 PM -14.9918 -49.1150 127° Southeast  Level Estimated
Wed 10:33:30 PM -14.9530 -49.3100 127° Southeast 462 532 32,800  Level FlightAware ADS-B
Wed 10:34:00 PM -15.0675 -49.0113 127° Southeast  Level Estimated
Wed 10:34:01 PM -14.9910 -49.2580 127° Southeast 452 520 31,800  Level FlightAware ADS-B
Wed 10:34:36 PM -15.0350 -49.1960 126° Southeast 444 511 30,600 -1,971 Descending FlightAware ADS-B
Wed 10:35:11 PM -15.0770 -49.1380 127° Southeast 432 497 29,500 -1,800 Descending FlightAware ADS-B
Wed 10:35:46 PM -15.1170 -49.0820 127° Southeast 424 488 28,500 -1,859 Descending FlightAware ADS-B
Wed 10:36:22 PM -15.1600 -49.0220 127° Southeast 414 476 27,300 -1,765 Descending FlightAware ADS-B
Wed 10:37:11 PM -15.2160 -48.9440 127° Southeast 406 467 26,000 -929 Descending FlightAware ADS-B
Wed 10:37:46 PM -15.2520 -48.8920 126° Southeast 387 445 26,000  Level FlightAware ADS-B
Wed 10:38:22 PM -15.2900 -48.8390 127° Southeast 386 444 26,000  Level FlightAware ADS-B
Wed 10:38:53 PM -15.3220 -48.7940 126° Southeast 385 443 26,000  Level FlightAware ADS-B
Wed 10:39:29 PM -15.3580 -48.7420 126° Southeast 384 442 26,000  Level FlightAware ADS-B
Wed 10:40:08 PM -15.4010 -48.6820 127° Southeast 382 440 26,000 -800 Level FlightAware ADS-B
Wed 10:40:44 PM -15.4390 -48.6290 127° Southeast 377 434 25,000 -1,727 Descending FlightAware ADS-B
Wed 10:41:14 PM -15.4700 -48.5860 127° Southeast 372 428 24,100 -1,714 Descending FlightAware ADS-B
Wed 10:41:54 PM -15.5110 -48.5280 126° Southeast 366 421 23,000 -1,629 Descending FlightAware ADS-B
Wed 10:42:24 PM -15.5400 -48.4860 126° Southeast 359 413 22,200 -1,569 Descending FlightAware ADS-B
Wed 10:42:59 PM -15.5730 -48.4400 127° Southeast 354 407 21,300 -1,606 Descending FlightAware ADS-B
Wed 10:43:35 PM -15.6080 -48.3890 125° Southeast 348 400 20,300 -1,606 Descending FlightAware ADS-B
Wed 10:44:10 PM -15.6410 -48.3440 127° Southeast 342 394 19,400 -1,629 Descending FlightAware ADS-B
Wed 10:44:45 PM -15.6740 -48.2960 126° Southeast 335 386 18,400 -1,543 Descending FlightAware ADS-B
Wed 10:45:20 PM -15.7050 -48.2520 126° Southeast 328 377 17,600 -1,457 Descending FlightAware ADS-B
Wed 10:45:55 PM -15.7370 -48.2070 126° Southeast 322 371 16,700 -1,543 Descending FlightAware ADS-B
Wed 10:46:30 PM -15.7670 -48.1650 127° Southeast 313 360 15,800 -1,320 Descending FlightAware ADS-B
Wed 10:46:45 PM -15.7730 -48.1490 111° Southeast 311 358 15,600 -1,200 Descending FlightAware ADS-B
Wed 10:46:55 PM -15.7750 -48.1310 97° East 308 354 15,300 -1,784 Descending FlightAware ADS-B
Wed 10:47:22 PM -15.7630 -48.0900 73° East 306 352 14,500 -1,524 Descending FlightAware ADS-B
Wed 10:47:58 PM -15.7450 -48.0410 69° East 299 344 13,700 -1,235 Descending FlightAware ADS-B
Wed 10:48:30 PM -15.7300 -48.0000 69° East 292 336 13,100 -882 Descending FlightAware ADS-B
Wed 10:49:06 PM -15.7130 -47.9540 69° East 270 311 12,700 -917 Descending FlightAware ADS-B
Wed 10:49:42 PM -15.7020 -47.9100 75° East 266 306 12,000 -1,167 Descending FlightAware ADS-B
Wed 10:50:18 PM -15.6900 -47.8640 75° East 268 308 11,300 -1,147 Descending FlightAware ADS-B
Wed 10:50:50 PM -15.6810 -47.8260 76° East 274 315 10,700 -1,071 Descending FlightAware ADS-B
Wed 10:51:14 PM -15.6870 -47.7940 101° East 274 315 10,300 -923 Descending FlightAware ADS-B
Wed 10:51:42 PM -15.7070 -47.7650 126° Southeast 262 302 9,900 -750 Descending FlightAware ADS-B
Wed 10:51:54 PM -15.7160 -47.7530 128° Southeast 256 295 9,800 -563 Descending FlightAware ADS-B
Wed 10:52:14 PM -15.7290 -47.7340 125° Southeast 249 287 9,600 -938 Descending FlightAware ADS-B
Wed 10:52:26 PM -15.7360 -47.7220 121° Southeast 249 287 9,300 -1,412 Descending FlightAware ADS-B
Wed 10:52:48 PM -15.7550 -47.7030 136° Southeast 245 282 8,800 -1,377 Descending FlightAware ADS-B
Wed 10:53:27 PM -15.7950 -47.7090 188° South 221 254 7,900 -1,220 Descending FlightAware ADS-B
Wed 10:53:47 PM -15.8140 -47.7150 197° South 210 242 7,600 -1,050 Descending FlightAware ADS-B
Wed 10:54:07 PM -15.8320 -47.7210 198° South 198 228 7,200 -857 Descending FlightAware ADS-B
Wed 10:54:22 PM -15.8450 -47.7250 196° South 191 220 7,100 -686 Descending FlightAware ADS-B
Wed 10:54:42 PM -15.8610 -47.7320 203° Southwest 183 211 6,800 -960 Descending FlightAware ADS-B
Wed 10:54:47 PM -15.8630 -47.7340 224° Southwest 185 213 6,700 -1,600 Descending FlightAware ADS-B
Wed 10:54:57 PM -15.8670 -47.7430 245° Southwest 186 214 6,400 -1,600 Descending FlightAware ADS-B
Wed 10:55:02 PM -15.8680 -47.7480 258° West 184 212 6,300 -1,000 Descending FlightAware ADS-B
Wed 10:55:27 PM -15.8700 -47.7680 264° West 179 206 5,900 -1,067 Descending FlightAware ADS-B
Wed 10:55:47 PM -15.8710 -47.7860 267° West 178 205 5,500 -1,050 Descending FlightAware ADS-B
Wed 10:56:07 PM -15.8720 -47.8030 266° West 173 199 5,200 -1,029 Descending FlightAware ADS-B
Wed 10:56:22 PM -15.8730 -47.8150 265° West 169 194 4,900 -857 Descending FlightAware ADS-B
Wed 10:56:42 PM -15.8740 -47.8310 266° West 165 190 4,700 -750 Descending FlightAware ADS-B
Wed 10:57:02 PM -15.8750 -47.8470 266° West 161 185 4,400 -900 Descending FlightAware ADS-B
Wed 10:57:22 PM -15.8760 -47.8620 266° West 156 180 4,100 -800 Descending FlightAware ADS-B
Wed 10:57:47 PM -15.8770 -47.8800 267° West 155 178 3,800 -600 Descending FlightAware ADS-B
Wed 10:57:52 PM -15.8770 -47.8830 270° West 155 178 3,800 -774 Level FlightAware ADS-B
Wed 10:58:18 PM -15.8780 -47.9040 267° West 155 178 3,400 -429 Descending FlightAware ADS-B
Wed 10:58:48 PM -15.8800 -47.9220 263° West 155 178 3,400  Level FlightAware ADS-B

Login

Don't have an account? Register now (free) for customized features, flight alerts, and more!